createdAt,value
2018-05-31T00:02:04.783Z,25.27
2018-05-31T00:04:32.671Z,20.70
2018-05-31T00:07:01.176Z,21.13
2018-05-31T00:09:29.014Z,21.43
2018-05-31T00:11:56.642Z,18.97
2018-05-31T00:14:24.535Z,20.43
2018-05-31T00:16:52.212Z,24.23
2018-05-31T00:19:19.871Z,22.30
2018-05-31T00:21:47.588Z,23.10
2018-05-31T00:24:15.505Z,27.20
2018-05-31T00:26:43.210Z,20.27
2018-05-31T00:29:11.020Z,17.27
2018-05-31T00:31:38.673Z,21.13
2018-05-31T00:34:06.324Z,23.80
2018-05-31T00:36:34.117Z,24.97
2018-05-31T00:39:01.980Z,16.70
2018-05-31T00:41:29.628Z,18.10
2018-05-31T00:43:57.902Z,29.43
2018-05-31T00:46:25.711Z,24.83
2018-05-31T00:48:53.598Z,17.10
2018-05-31T00:51:21.278Z,19.50
2018-05-31T00:53:50.391Z,20.43
2018-05-31T00:56:18.288Z,24.27
2018-05-31T00:58:45.962Z,18.20
2018-05-31T01:01:13.869Z,20.90
2018-05-31T01:03:41.890Z,19.53
2018-05-31T01:06:10.470Z,24.27
2018-05-31T01:08:38.095Z,22.83
2018-05-31T01:11:05.709Z,18.13
2018-05-31T01:13:33.946Z,23.20
2018-05-31T01:16:01.598Z,23.23
2018-05-31T01:18:29.389Z,22.77
2018-05-31T01:20:57.259Z,21.10
2018-05-31T01:23:24.923Z,20.90
2018-05-31T01:25:52.576Z,23.77
2018-05-31T01:28:20.244Z,22.17
2018-05-31T01:30:47.869Z,22.27
2018-05-31T01:33:15.750Z,21.57
2018-05-31T01:35:43.670Z,22.77
2018-05-31T01:38:23.091Z,20.03
2018-05-31T01:40:50.854Z,20.23
2018-05-31T01:43:18.724Z,20.80
2018-05-31T01:45:46.472Z,20.57
2018-05-31T01:48:14.465Z,25.87
2018-05-31T01:50:42.760Z,22.70
2018-05-31T01:53:10.519Z,24.63
2018-05-31T01:55:38.166Z,24.60
2018-05-31T01:58:05.923Z,20.23
2018-05-31T02:00:33.577Z,20.83
2018-05-31T02:03:01.443Z,18.73
2018-05-31T02:05:29.282Z,21.17
2018-05-31T02:07:57.192Z,21.77
2018-05-31T02:10:24.855Z,23.80
2018-05-31T02:12:52.498Z,21.20
2018-05-31T02:15:20.404Z,19.93
2018-05-31T02:17:48.238Z,22.47
2018-05-31T02:20:16.177Z,23.70
2018-05-31T02:22:43.946Z,19.93
2018-05-31T02:25:11.684Z,22.27
2018-05-31T02:27:39.347Z,23.70
2018-05-31T02:30:07.172Z,22.70
2018-05-31T02:32:34.991Z,23.60
2018-05-31T02:35:02.795Z,20.57
2018-05-31T02:37:30.444Z,23.50
2018-05-31T02:39:58.235Z,20.87
2018-05-31T02:42:25.884Z,25.87
2018-05-31T02:44:53.766Z,21.03
2018-05-31T02:47:22.114Z,23.90
2018-05-31T02:49:50.689Z,22.17
2018-05-31T02:52:18.395Z,22.33
2018-05-31T02:54:46.079Z,34.13
2018-05-31T02:57:14.305Z,20.10
2018-05-31T02:59:42.320Z,20.83
2018-05-31T03:02:10.283Z,18.13
2018-05-31T03:04:37.932Z,20.07
2018-05-31T03:07:05.786Z,20.43
2018-05-31T03:09:33.407Z,22.87
2018-05-31T03:12:01.076Z,21.40
2018-05-31T03:14:28.692Z,20.87
2018-05-31T03:16:56.344Z,20.03
2018-05-31T03:19:24.017Z,20.97
2018-05-31T03:21:51.748Z,23.83
2018-05-31T03:24:19.605Z,18.53
2018-05-31T03:26:47.244Z,23.90
2018-05-31T03:29:15.076Z,18.30
2018-05-31T03:31:42.725Z,27.80
2018-05-31T03:34:10.603Z,25.23
2018-05-31T03:36:38.216Z,23.23
2018-05-31T03:39:06.127Z,25.13
2018-05-31T03:41:33.845Z,26.30
2018-05-31T03:44:01.485Z,21.97
2018-05-31T03:46:29.160Z,26.63
2018-05-31T03:48:57.522Z,21.77
2018-05-31T03:51:25.248Z,23.63
2018-05-31T03:53:53.109Z,20.53
2018-05-31T03:56:20.734Z,25.37
2018-05-31T03:58:48.348Z,19.27
2018-05-31T04:01:16.044Z,23.33
2018-05-31T04:03:43.779Z,23.20
2018-05-31T04:06:11.719Z,23.30
2018-05-31T04:08:39.445Z,21.07
2018-05-31T04:11:07.160Z,18.73
2018-05-31T04:13:34.780Z,17.17
2018-05-31T04:16:04.864Z,18.10
2018-05-31T04:18:32.927Z,23.13
2018-05-31T04:21:00.793Z,23.23
2018-05-31T04:23:28.389Z,20.73
2018-05-31T04:25:56.064Z,19.87
2018-05-31T04:28:24.496Z,23.00
2018-05-31T04:30:52.454Z,22.20
2018-05-31T04:33:20.941Z,28.33
2018-05-31T04:35:48.915Z,28.77
2018-05-31T04:38:16.769Z,34.57
2018-05-31T04:40:44.392Z,30.63
2018-05-31T04:43:12.812Z,36.50
2018-05-31T04:45:40.612Z,26.70
2018-05-31T04:48:08.289Z,34.33
2018-05-31T04:50:35.996Z,31.00
2018-05-31T04:53:05.004Z,26.13
2018-05-31T04:55:32.977Z,29.53
2018-05-31T04:58:00.771Z,29.00
2018-05-31T05:00:29.745Z,24.90
2018-05-31T05:02:57.672Z,23.17
2018-05-31T05:05:25.669Z,37.03
2018-05-31T05:07:53.554Z,24.17
2018-05-31T05:10:21.215Z,24.83
2018-05-31T05:12:48.975Z,28.03
2018-05-31T05:15:16.869Z,23.77
2018-05-31T05:17:44.751Z,29.03
2018-05-31T05:20:12.763Z,23.93
2018-05-31T05:22:40.433Z,22.30
2018-05-31T05:25:08.304Z,28.87
2018-05-31T05:27:35.970Z,22.30
2018-05-31T05:30:03.841Z,25.70
2018-05-31T05:32:32.154Z,36.77
2018-05-31T05:35:00.773Z,22.13
2018-05-31T05:37:28.401Z,26.37
2018-05-31T05:39:56.331Z,23.03
2018-05-31T05:42:23.981Z,25.60
2018-05-31T05:44:51.804Z,28.00
2018-05-31T05:47:19.514Z,26.10
2018-05-31T05:49:47.202Z,23.50
2018-05-31T05:52:15.894Z,26.87
2018-05-31T05:54:44.023Z,26.93
2018-05-31T05:57:11.739Z,23.10
2018-05-31T05:59:39.425Z,40.10
2018-05-31T06:02:07.197Z,21.20
2018-05-31T06:04:35.787Z,25.97
2018-05-31T06:07:03.690Z,24.03
2018-05-31T06:09:31.764Z,24.07
2018-05-31T06:11:59.404Z,23.17
2018-05-31T06:14:27.090Z,33.50
2018-05-31T06:16:55.161Z,29.53
2018-05-31T06:19:23.747Z,27.63
2018-05-31T06:21:51.371Z,25.13
2018-05-31T06:24:19.069Z,25.90
2018-05-31T06:26:46.836Z,30.83
2018-05-31T06:29:14.678Z,20.37
2018-05-31T06:31:42.458Z,31.63
2018-05-31T06:34:10.230Z,24.23
2018-05-31T06:36:37.966Z,25.03
2018-05-31T06:39:05.824Z,17.83
2018-05-31T06:41:35.277Z,28.33
2018-05-31T06:44:03.918Z,24.73
2018-05-31T06:46:31.812Z,31.13
2018-05-31T06:48:59.481Z,29.47
2018-05-31T06:51:27.830Z,29.23
2018-05-31T06:53:55.625Z,20.93
2018-05-31T06:56:23.904Z,24.87
2018-05-31T06:58:53.306Z,24.70
2018-05-31T07:01:20.967Z,22.60
2018-05-31T07:03:48.983Z,21.30
2018-05-31T07:06:17.006Z,17.40
2018-05-31T07:08:44.710Z,24.30
2018-05-31T07:11:14.041Z,22.40
2018-05-31T07:13:42.002Z,28.23
2018-05-31T07:16:10.421Z,17.23
2018-05-31T07:18:38.043Z,21.60
2018-05-31T07:21:07.595Z,20.60
2018-05-31T07:23:35.356Z,20.20
2018-05-31T07:26:03.763Z,23.13
2018-05-31T07:28:31.654Z,18.60
2018-05-31T07:30:59.362Z,29.10
2018-05-31T07:33:27.033Z,26.53
2018-05-31T07:35:55.005Z,25.67
2018-05-31T07:38:23.701Z,20.07
2018-05-31T07:40:51.425Z,23.43
2018-05-31T07:43:19.341Z,19.53
2018-05-31T07:45:47.094Z,20.60
2018-05-31T07:48:14.893Z,23.40
2018-05-31T07:50:42.945Z,18.97
2018-05-31T07:53:10.891Z,18.50
2018-05-31T07:55:38.984Z,18.63
2018-05-31T07:58:06.727Z,27.23
2018-05-31T08:00:34.766Z,18.87
2018-05-31T08:03:02.643Z,18.13
2018-05-31T08:05:30.784Z,20.00
2018-05-31T08:07:59.932Z,18.07
2018-05-31T08:10:27.630Z,27.00
2018-05-31T08:12:55.477Z,17.17
2018-05-31T08:15:23.131Z,16.90
2018-05-31T08:17:50.909Z,25.33
2018-05-31T08:20:18.677Z,18.97
2018-05-31T08:22:46.438Z,16.60
2018-05-31T08:25:14.151Z,14.73
2018-05-31T08:27:41.868Z,16.20
2018-05-31T08:30:09.555Z,21.73
2018-05-31T08:32:38.052Z,14.97
2018-05-31T08:35:05.668Z,22.53
2018-05-31T08:37:33.732Z,21.40
2018-05-31T08:40:01.449Z,21.47
2018-05-31T08:42:30.056Z,19.17
2018-05-31T08:44:57.743Z,14.10
2018-05-31T08:47:25.453Z,17.73
2018-05-31T08:49:53.080Z,18.37
2018-05-31T08:52:20.880Z,17.33
2018-05-31T08:54:48.506Z,16.97
2018-05-31T08:57:16.452Z,23.00
2018-05-31T08:59:45.178Z,18.23
2018-05-31T09:02:13.256Z,16.80
2018-05-31T09:04:41.496Z,20.13
2018-05-31T09:07:09.542Z,16.90
2018-05-31T09:09:37.182Z,9.83
2018-05-31T09:12:04.901Z,18.90
2018-05-31T09:14:32.569Z,16.47
2018-05-31T09:17:00.329Z,15.20
2018-05-31T09:19:27.990Z,21.03
2018-05-31T09:21:55.686Z,16.90
2018-05-31T09:24:23.546Z,18.77
2018-05-31T09:26:51.204Z,19.87
2018-05-31T09:29:18.882Z,12.03
2018-05-31T09:31:46.523Z,14.93
2018-05-31T09:34:14.156Z,18.30
2018-05-31T09:36:41.875Z,26.63
2018-05-31T09:39:09.492Z,21.83
2018-05-31T09:41:37.234Z,15.93
2018-05-31T09:44:04.903Z,19.70
2018-05-31T09:46:32.621Z,13.70
2018-05-31T09:49:00.263Z,14.80
2018-05-31T09:51:28.025Z,12.80
2018-05-31T09:53:55.715Z,16.83
2018-05-31T09:56:23.373Z,10.43
2018-05-31T09:58:51.065Z,15.60
2018-05-31T10:01:18.701Z,15.87
2018-05-31T10:03:46.449Z,12.27
2018-05-31T10:06:14.167Z,14.00
2018-05-31T10:08:41.802Z,17.13
2018-05-31T10:11:09.540Z,15.90
2018-05-31T10:13:37.222Z,13.37
2018-05-31T10:16:04.890Z,14.30
2018-05-31T10:18:32.587Z,23.30
2018-05-31T10:21:00.214Z,16.83
2018-05-31T10:23:27.958Z,20.20
2018-05-31T10:25:55.571Z,12.67
2018-05-31T10:28:23.284Z,14.60
2018-05-31T10:30:50.936Z,9.77
2018-05-31T10:33:18.624Z,10.33
2018-05-31T10:35:46.369Z,13.40
2018-05-31T10:38:13.980Z,16.97
2018-05-31T10:40:41.699Z,14.90
2018-05-31T10:43:09.343Z,17.10
2018-05-31T10:45:37.043Z,12.43
2018-05-31T10:48:04.678Z,12.03
2018-05-31T10:50:32.375Z,17.07
2018-05-31T10:53:00.049Z,14.33
2018-05-31T10:55:27.738Z,12.30
2018-05-31T10:57:55.370Z,15.40
2018-05-31T11:00:23.065Z,19.63
2018-05-31T11:02:50.727Z,13.30
2018-05-31T11:05:18.380Z,11.93
2018-05-31T11:07:46.073Z,11.80
2018-05-31T11:10:13.723Z,11.83
2018-05-31T11:12:41.659Z,14.97
2018-05-31T11:15:09.361Z,18.40
2018-05-31T11:17:37.010Z,11.17
2018-05-31T11:20:04.808Z,19.33
2018-05-31T11:22:32.441Z,20.53
2018-05-31T11:25:00.101Z,19.07
2018-05-31T11:27:28.553Z,12.00
2018-05-31T11:29:56.160Z,17.47
2018-05-31T11:32:23.837Z,23.30
2018-05-31T11:34:51.510Z,14.43
2018-05-31T11:37:19.168Z,16.23
2018-05-31T11:39:46.997Z,18.20
2018-05-31T11:42:14.674Z,17.33
2018-05-31T11:44:42.334Z,12.47
2018-05-31T11:47:10.040Z,8.80
2018-05-31T11:49:37.701Z,11.30
2018-05-31T11:52:05.374Z,13.67
2018-05-31T11:54:33.004Z,18.83
2018-05-31T11:57:00.683Z,8.73
2018-05-31T11:59:28.458Z,10.30
2018-05-31T12:01:56.163Z,8.03
2018-05-31T12:04:23.965Z,9.77
2018-05-31T12:06:52.240Z,10.10
2018-05-31T12:09:19.947Z,8.93
2018-05-31T12:11:47.577Z,11.57
2018-05-31T12:14:15.259Z,11.70
2018-05-31T12:16:42.926Z,16.03
2018-05-31T12:19:11.277Z,13.30
2018-05-31T12:21:39.055Z,13.13
2018-05-31T12:24:06.985Z,12.10
2018-05-31T12:26:34.643Z,17.60
2018-05-31T12:29:02.431Z,19.10
2018-05-31T12:31:30.073Z,16.23
2018-05-31T12:33:57.790Z,17.90
2018-05-31T12:36:25.428Z,16.13
2018-05-31T12:38:53.130Z,13.00
2018-05-31T12:41:20.798Z,12.73
2018-05-31T12:43:48.533Z,18.30
2018-05-31T12:46:16.185Z,14.87
2018-05-31T12:48:43.929Z,18.23
2018-05-31T12:51:11.700Z,25.67
2018-05-31T12:53:39.476Z,12.20
2018-05-31T12:56:07.260Z,16.63
2018-05-31T12:58:34.949Z,16.70
2018-05-31T13:01:02.703Z,18.60
2018-05-31T13:03:30.524Z,9.57
2018-05-31T13:05:58.282Z,12.87
2018-05-31T13:08:25.954Z,14.37
2018-05-31T13:10:53.812Z,13.77
2018-05-31T13:13:21.546Z,11.00
2018-05-31T13:15:49.232Z,10.17
2018-05-31T13:18:17.017Z,19.80
2018-05-31T13:20:44.754Z,17.10
2018-05-31T13:23:13.613Z,23.27
2018-05-31T13:25:42.481Z,25.00
2018-05-31T13:28:13.127Z,19.40
2018-05-31T13:30:40.942Z,25.27
2018-05-31T13:33:08.708Z,28.93
2018-05-31T13:35:36.447Z,13.70
2018-05-31T13:38:04.667Z,20.03
2018-05-31T13:40:32.430Z,15.37
2018-05-31T13:43:00.404Z,14.97
2018-05-31T13:45:28.139Z,11.27
2018-05-31T13:47:56.698Z,10.73
2018-05-31T13:50:24.451Z,19.30
2018-05-31T13:52:52.157Z,12.97
2018-05-31T13:55:20.956Z,16.23
2018-05-31T13:57:48.596Z,19.60
2018-05-31T14:00:17.577Z,15.63
2018-05-31T14:02:45.399Z,8.10
2018-05-31T14:05:14.074Z,15.60
2018-05-31T14:07:42.834Z,15.10
2018-05-31T14:10:10.558Z,11.43
2018-05-31T14:12:38.212Z,7.57
2018-05-31T14:15:06.834Z,27.47
2018-05-31T14:17:37.229Z,21.57
2018-05-31T14:20:05.104Z,13.60
2018-05-31T14:22:32.745Z,9.80
2018-05-31T14:25:00.518Z,13.70
2018-05-31T14:27:28.264Z,24.63
2018-05-31T14:29:56.282Z,17.00
2018-05-31T14:32:24.217Z,16.43
2018-05-31T14:34:51.923Z,9.50
2018-05-31T14:37:19.665Z,14.97
2018-05-31T14:39:47.346Z,14.60
2018-05-31T14:42:15.034Z,14.70
2018-05-31T14:44:42.765Z,13.50
2018-05-31T14:47:10.495Z,16.90
2018-05-31T14:49:38.218Z,11.83
2018-05-31T14:52:06.002Z,12.50
2018-05-31T14:54:33.682Z,13.77
2018-05-31T14:57:01.380Z,14.97
2018-05-31T14:59:29.052Z,13.03
2018-05-31T15:01:56.787Z,14.00
2018-05-31T15:04:24.410Z,16.40
2018-05-31T15:06:52.222Z,16.47
2018-05-31T15:09:19.959Z,12.43
2018-05-31T15:11:47.660Z,14.70
2018-05-31T15:14:15.357Z,17.23
2018-05-31T15:16:43.043Z,23.50
2018-05-31T15:19:10.783Z,11.77
2018-05-31T15:21:38.516Z,12.63
2018-05-31T15:24:06.248Z,17.33
2018-05-31T15:26:33.995Z,14.57
2018-05-31T15:29:01.672Z,13.20
2018-05-31T15:31:29.359Z,10.43
2018-05-31T15:33:57.049Z,11.90
2018-05-31T15:36:25.609Z,21.70
2018-05-31T15:38:53.275Z,11.63
2018-05-31T15:41:21.018Z,18.23
2018-05-31T15:43:48.687Z,15.20
2018-05-31T15:46:16.391Z,10.13
2018-05-31T15:48:44.124Z,14.67
2018-05-31T15:51:11.740Z,12.20
2018-05-31T15:53:39.413Z,13.97
2018-05-31T15:56:07.058Z,9.40
2018-05-31T15:58:34.712Z,11.40
2018-05-31T16:01:02.420Z,12.33
2018-05-31T16:03:30.040Z,10.63
2018-05-31T16:05:57.715Z,9.63
2018-05-31T16:08:25.321Z,14.93
2018-05-31T16:10:52.937Z,12.40
2018-05-31T16:13:20.609Z,9.03
2018-05-31T16:15:48.265Z,18.50
2018-05-31T16:18:15.890Z,19.33
2018-05-31T16:20:43.535Z,12.70
2018-05-31T16:23:11.593Z,16.00
2018-05-31T16:25:39.236Z,11.80
2018-05-31T16:28:06.894Z,24.33
2018-05-31T16:30:34.586Z,16.20
2018-05-31T16:33:02.308Z,15.57
2018-05-31T16:35:29.967Z,22.00
2018-05-31T16:37:57.605Z,17.93
2018-05-31T16:40:25.288Z,13.40
2018-05-31T16:42:52.919Z,18.63
2018-05-31T16:45:20.697Z,16.93
2018-05-31T16:47:48.325Z,19.80
2018-05-31T16:50:16.026Z,15.70
2018-05-31T16:52:44.683Z,17.13
2018-05-31T16:55:12.414Z,18.77
2018-05-31T16:57:40.028Z,9.33
2018-05-31T17:00:07.665Z,20.30
2018-05-31T17:02:35.344Z,13.83
2018-05-31T17:05:03.112Z,16.83
2018-05-31T17:07:30.803Z,12.37
2018-05-31T17:09:58.433Z,13.17
2018-05-31T17:12:26.255Z,18.80
2018-05-31T17:14:53.944Z,16.53
2018-05-31T17:17:21.571Z,15.57
2018-05-31T17:19:49.237Z,19.33
2018-05-31T17:22:16.941Z,26.60
2018-05-31T17:24:44.557Z,13.93
2018-05-31T17:27:12.225Z,15.93
2018-05-31T17:29:39.829Z,13.83
2018-05-31T17:32:07.532Z,14.87
2018-05-31T17:34:35.183Z,15.30
2018-05-31T17:37:02.816Z,18.93
2018-05-31T17:39:30.568Z,14.83
2018-05-31T17:41:58.255Z,15.30
2018-05-31T17:44:25.959Z,12.97
2018-05-31T17:46:53.584Z,12.70
2018-05-31T17:49:21.494Z,14.80
2018-05-31T17:51:49.190Z,18.80
2018-05-31T17:54:16.882Z,15.20
2018-05-31T17:56:44.585Z,17.43
2018-05-31T17:59:12.293Z,17.93
2018-05-31T18:01:40.058Z,17.40
2018-05-31T18:04:07.787Z,17.33
2018-05-31T18:06:35.500Z,15.23
2018-05-31T18:09:03.302Z,12.33
2018-05-31T18:11:31.060Z,11.13
2018-05-31T18:13:59.317Z,16.40
2018-05-31T18:16:27.156Z,8.70
2018-05-31T18:18:54.865Z,19.57
2018-05-31T18:21:22.512Z,14.47
2018-05-31T18:23:50.274Z,14.57
2018-05-31T18:26:18.137Z,17.50
2018-05-31T18:28:45.775Z,24.53
2018-05-31T18:31:13.810Z,16.20
2018-05-31T18:33:41.495Z,14.33
2018-05-31T18:36:10.485Z,14.10
2018-05-31T18:38:38.480Z,11.70
2018-05-31T18:41:06.256Z,18.80
2018-05-31T18:43:37.502Z,15.00
2018-05-31T18:46:05.254Z,12.17
2018-05-31T18:48:33.476Z,12.03
2018-05-31T18:51:01.757Z,10.30
2018-05-31T18:53:29.410Z,17.67
2018-05-31T18:55:57.705Z,14.90
2018-05-31T18:58:26.580Z,11.20
2018-05-31T19:00:54.401Z,14.80
2018-05-31T19:03:22.155Z,13.50
2018-05-31T19:05:49.868Z,14.83
2018-05-31T19:08:17.564Z,13.67
2018-05-31T19:10:45.260Z,17.40
2018-05-31T19:13:18.424Z,15.00
2018-05-31T19:15:46.320Z,13.90
2018-05-31T19:18:19.411Z,14.97
2018-05-31T19:20:47.140Z,15.73
2018-05-31T19:23:14.922Z,13.80
2018-05-31T19:25:42.714Z,13.77
2018-05-31T19:28:10.343Z,13.07
2018-05-31T19:30:43.543Z,16.40
2018-05-31T19:33:11.400Z,15.53
2018-05-31T19:35:44.716Z,11.03
2018-05-31T19:38:12.410Z,23.77
2018-05-31T19:40:40.284Z,22.80
2018-05-31T19:43:13.721Z,15.00
2018-05-31T19:45:41.382Z,13.77
2018-05-31T19:48:10.126Z,14.23
2018-05-31T19:50:37.816Z,19.70
2018-05-31T19:53:11.158Z,14.53
2018-05-31T19:55:38.843Z,10.33
2018-05-31T19:58:12.748Z,14.30
2018-05-31T20:00:46.112Z,11.97
2018-05-31T20:03:19.370Z,14.17
2018-05-31T20:05:47.065Z,18.57
2018-05-31T20:08:14.723Z,19.20
2018-05-31T20:10:42.608Z,15.43
2018-05-31T20:13:10.580Z,16.27
2018-05-31T20:15:38.311Z,10.13
2018-05-31T20:18:06.741Z,16.30
2018-05-31T20:20:34.471Z,14.33
2018-05-31T20:23:02.970Z,7.27
2018-05-31T20:25:31.486Z,13.93
2018-05-31T20:27:59.496Z,12.63
2018-05-31T20:30:27.510Z,15.13
2018-05-31T20:32:55.461Z,12.47
2018-05-31T20:35:23.551Z,13.37
2018-05-31T20:37:51.567Z,14.73
2018-05-31T20:40:21.783Z,13.50
2018-05-31T20:42:51.857Z,10.60
2018-05-31T20:45:19.767Z,11.27
2018-05-31T20:47:47.886Z,9.17
2018-05-31T20:50:16.159Z,11.60
2018-05-31T20:52:44.645Z,15.27
2018-05-31T20:55:13.039Z,11.17
2018-05-31T20:57:40.657Z,15.20
2018-05-31T21:00:08.621Z,12.43
2018-05-31T21:02:37.135Z,10.80
2018-05-31T21:05:05.509Z,11.37
2018-05-31T21:07:33.377Z,15.30
2018-05-31T21:10:01.248Z,11.60
2018-05-31T21:12:28.858Z,8.77
2018-05-31T21:14:57.391Z,7.50
2018-05-31T21:17:25.252Z,14.87
2018-05-31T21:19:53.132Z,10.53
2018-05-31T21:22:21.709Z,13.90
2018-05-31T21:24:49.576Z,15.57
2018-05-31T21:27:18.107Z,18.20
2018-05-31T21:29:45.753Z,23.30
2018-05-31T21:32:13.422Z,13.43
2018-05-31T21:34:41.875Z,12.63
2018-05-31T21:37:10.308Z,9.17
2018-05-31T21:39:38.208Z,12.37
2018-05-31T21:42:05.871Z,12.23
2018-05-31T21:44:33.542Z,9.70
2018-05-31T21:47:01.300Z,11.83
2018-05-31T21:49:29.077Z,8.23
2018-05-31T21:51:56.745Z,13.70
2018-05-31T21:54:24.406Z,14.67
2018-05-31T21:56:52.165Z,11.57
2018-05-31T21:59:19.847Z,11.43
2018-05-31T22:01:47.603Z,12.20
2018-05-31T22:04:15.473Z,23.53
2018-05-31T22:06:43.222Z,15.97
2018-05-31T22:09:10.846Z,11.30
2018-05-31T22:11:38.586Z,10.03
2018-05-31T22:14:06.185Z,15.13
2018-05-31T22:16:33.911Z,9.10
2018-05-31T22:19:02.281Z,10.43
2018-05-31T22:21:29.900Z,11.70
2018-05-31T22:23:57.660Z,15.00
2018-05-31T22:26:25.270Z,11.20
2018-05-31T22:28:53.207Z,9.50
2018-05-31T22:31:20.811Z,11.37
2018-05-31T22:33:48.481Z,21.60
2018-05-31T22:36:16.355Z,12.60
2018-05-31T22:38:44.036Z,13.63
2018-05-31T22:41:11.959Z,12.50
2018-05-31T22:43:39.802Z,19.17
2018-05-31T22:46:07.535Z,12.17
2018-05-31T22:48:35.238Z,11.70
2018-05-31T22:51:02.870Z,9.83
2018-05-31T22:53:30.471Z,9.53
2018-05-31T22:55:58.135Z,18.80
2018-05-31T22:58:26.357Z,13.83
2018-05-31T23:00:54.677Z,10.10
2018-05-31T23:03:22.690Z,9.47
2018-05-31T23:05:50.479Z,10.10
2018-05-31T23:08:18.162Z,11.63
2018-05-31T23:10:45.842Z,10.63
2018-05-31T23:13:13.443Z,13.13
2018-05-31T23:15:41.133Z,12.80
2018-05-31T23:18:08.840Z,12.90
2018-05-31T23:20:37.417Z,20.90
2018-05-31T23:23:05.075Z,9.80
2018-05-31T23:25:34.698Z,11.20
2018-05-31T23:28:02.551Z,10.70
2018-05-31T23:30:30.192Z,14.70
2018-05-31T23:32:58.418Z,11.90
2018-05-31T23:35:27.005Z,14.57
2018-05-31T23:37:54.675Z,15.20
2018-05-31T23:40:22.998Z,8.43
2018-05-31T23:42:50.841Z,14.20
2018-05-31T23:45:18.524Z,12.30
2018-05-31T23:47:47.007Z,16.90
2018-05-31T23:50:14.595Z,17.47
2018-05-31T23:52:42.269Z,15.87
2018-05-31T23:55:09.921Z,15.47
2018-05-31T23:57:39.156Z,11.13
